createdAt,value
2023-01-17T00:00:07.170Z,66.80
2023-01-17T00:02:34.231Z,66.70
2023-01-17T00:05:19.458Z,66.80
2023-01-17T00:08:05.428Z,66.90
2023-01-17T00:10:32.337Z,67.00
2023-01-17T00:13:03.484Z,67.10
2023-01-17T00:15:31.284Z,67.10
2023-01-17T00:17:58.581Z,67.00
2023-01-17T00:20:45.769Z,67.00
2023-01-17T00:23:33.993Z,67.00
2023-01-17T00:26:04.168Z,66.80
2023-01-17T00:28:49.096Z,66.60
2023-01-17T00:31:16.466Z,66.60
2023-01-17T00:33:43.491Z,66.60
2023-01-17T00:36:10.863Z,66.60
2023-01-17T00:38:38.594Z,66.60
2023-01-17T00:41:06.883Z,66.60
2023-01-17T00:43:52.571Z,66.60
2023-01-17T00:46:38.460Z,66.80
2023-01-17T00:49:24.324Z,67.00
2023-01-17T00:52:09.673Z,67.10
2023-01-17T00:54:55.610Z,67.10
2023-01-17T00:57:40.804Z,67.20
2023-01-17T01:00:27.603Z,67.20
2023-01-17T01:03:13.055Z,67.30
2023-01-17T01:05:58.435Z,67.60
2023-01-17T01:08:45.896Z,67.70
2023-01-17T01:11:33.225Z,67.80
2023-01-17T01:14:18.969Z,67.70
2023-01-17T01:17:04.919Z,67.60
2023-01-17T01:19:50.291Z,67.50
2023-01-17T01:22:35.636Z,67.60
2023-01-17T01:25:21.144Z,67.70
2023-01-17T01:28:06.540Z,67.60
2023-01-17T01:30:51.824Z,67.70
2023-01-17T01:33:21.312Z,67.60
2023-01-17T01:35:52.601Z,67.40
2023-01-17T01:38:20.887Z,67.30
2023-01-17T01:40:51.609Z,67.20
2023-01-17T01:43:19.920Z,67.10
2023-01-17T01:45:49.286Z,67.30
2023-01-17T01:48:31.963Z,67.30
2023-01-17T01:50:59.060Z,67.00
2023-01-17T01:53:26.455Z,67.20
2023-01-17T01:55:53.488Z,67.10
2023-01-17T01:58:22.414Z,67.20
2023-01-17T02:00:49.507Z,67.20
2023-01-17T02:03:42.922Z,67.20
2023-01-17T02:06:18.763Z,67.40
2023-01-17T02:08:45.709Z,67.30
2023-01-17T02:11:13.164Z,67.40
2023-01-17T02:13:40.549Z,67.20
2023-01-17T02:16:16.881Z,67.10
2023-01-17T02:18:51.323Z,67.10
2023-01-17T02:21:18.279Z,67.00
2023-01-17T02:23:57.390Z,66.50
2023-01-17T02:26:27.429Z,66.40
2023-01-17T02:29:11.266Z,66.50
2023-01-17T02:31:49.775Z,66.60
2023-01-17T02:34:24.640Z,66.70
2023-01-17T02:36:56.085Z,66.60
2023-01-17T02:39:24.514Z,66.70
2023-01-17T02:41:53.933Z,66.90
2023-01-17T02:44:20.908Z,66.70
2023-01-17T02:46:48.831Z,66.90
2023-01-17T02:49:16.438Z,66.80
2023-01-17T02:52:01.951Z,66.60
2023-01-17T02:54:36.249Z,66.70
2023-01-17T02:57:25.889Z,66.90
2023-01-17T02:59:52.823Z,67.10
2023-01-17T03:02:28.476Z,67.10
2023-01-17T03:05:07.883Z,67.30
2023-01-17T03:07:35.151Z,66.80
2023-01-17T03:10:03.695Z,66.80
2023-01-17T03:12:32.330Z,67.00
2023-01-17T03:14:59.238Z,67.10
2023-01-17T03:17:30.510Z,67.30
2023-01-17T03:19:57.849Z,67.40
2023-01-17T03:22:24.677Z,67.40
2023-01-17T03:24:51.626Z,67.60
2023-01-17T03:27:18.628Z,67.70
2023-01-17T03:29:45.561Z,67.80
2023-01-17T03:32:12.429Z,67.70
2023-01-17T03:34:39.309Z,67.50
2023-01-17T03:37:06.265Z,67.70
2023-01-17T03:39:33.157Z,67.70
2023-01-17T03:42:00.062Z,67.70
2023-01-17T03:44:27.056Z,67.70
2023-01-17T03:46:53.953Z,67.70
2023-01-17T03:49:21.036Z,67.50
2023-01-17T03:51:48.008Z,67.60
2023-01-17T03:54:14.869Z,67.70
2023-01-17T03:56:41.752Z,67.50
2023-01-17T03:59:09.728Z,67.00
2023-01-17T04:01:37.967Z,66.90
2023-01-17T04:04:05.019Z,66.80
2023-01-17T04:06:31.973Z,66.80
2023-01-17T04:08:58.835Z,66.70
2023-01-17T04:11:25.687Z,66.50
2023-01-17T04:13:52.582Z,66.30
2023-01-17T04:16:20.103Z,65.80
2023-01-17T04:18:47.051Z,65.50
2023-01-17T04:21:13.884Z,65.20
2023-01-17T04:23:40.824Z,65.00
2023-01-17T04:26:07.671Z,64.80
2023-01-17T04:28:34.742Z,64.80
2023-01-17T04:31:01.680Z,64.40
2023-01-17T04:33:28.675Z,64.20
2023-01-17T04:35:55.932Z,63.90
2023-01-17T04:38:23.674Z,63.60
2023-01-17T04:40:50.918Z,63.40
2023-01-17T04:43:17.785Z,63.20
2023-01-17T04:45:44.599Z,63.00
2023-01-17T04:48:12.858Z,62.60
2023-01-17T04:50:40.063Z,62.30
2023-01-17T04:53:07.062Z,62.20
2023-01-17T04:55:34.019Z,62.00
2023-01-17T04:58:00.911Z,61.80
2023-01-17T05:00:27.924Z,61.60
2023-01-17T05:02:54.773Z,61.20
2023-01-17T05:05:21.645Z,61.10
2023-01-17T05:07:55.562Z,61.10
2023-01-17T05:10:23.124Z,61.00
2023-01-17T05:12:59.577Z,60.90
2023-01-17T05:15:27.156Z,60.90
2023-01-17T05:17:54.259Z,60.60
2023-01-17T05:20:22.270Z,60.70
2023-01-17T05:22:55.647Z,60.50
2023-01-17T05:25:23.550Z,60.60
2023-01-17T05:27:50.499Z,60.60
2023-01-17T05:30:17.979Z,60.40
2023-01-17T05:32:48.031Z,60.30
2023-01-17T05:35:15.593Z,60.20
2023-01-17T05:37:49.071Z,60.10
2023-01-17T05:40:20.209Z,59.80
2023-01-17T05:42:47.756Z,59.60
2023-01-17T05:45:17.068Z,59.60
2023-01-17T05:47:44.768Z,59.50
2023-01-17T05:50:16.013Z,59.20
2023-01-17T05:52:48.893Z,59.20
2023-01-17T05:55:15.724Z,59.10
2023-01-17T05:57:42.569Z,59.00
2023-01-17T06:00:09.938Z,58.90
2023-01-17T06:02:36.852Z,58.80
2023-01-17T06:05:04.064Z,58.70
2023-01-17T06:07:31.598Z,58.70
2023-01-17T06:09:58.472Z,58.60
2023-01-17T06:12:25.392Z,58.50
2023-01-17T06:14:52.352Z,58.20
2023-01-17T06:17:19.238Z,58.20
2023-01-17T06:19:46.144Z,58.30
2023-01-17T06:22:13.043Z,58.20
2023-01-17T06:24:40.008Z,58.20
2023-01-17T06:27:08.766Z,58.10
2023-01-17T06:29:35.689Z,58.00
2023-01-17T06:32:03.136Z,58.00
2023-01-17T06:34:30.011Z,57.90
2023-01-17T06:36:57.096Z,57.90
2023-01-17T06:39:23.986Z,57.90
2023-01-17T06:41:51.493Z,57.80
2023-01-17T06:44:18.495Z,57.80
2023-01-17T06:46:45.519Z,57.80
2023-01-17T06:49:12.422Z,57.60
2023-01-17T06:51:39.362Z,57.60
2023-01-17T06:54:06.357Z,57.40
2023-01-17T06:56:34.077Z,57.20
2023-01-17T06:59:00.992Z,57.10
2023-01-17T07:01:28.220Z,57.10
2023-01-17T07:03:55.225Z,57.10
2023-01-17T07:06:23.935Z,57.00
2023-01-17T07:08:51.128Z,56.80
2023-01-17T07:11:18.132Z,56.80
2023-01-17T07:13:45.192Z,56.70
2023-01-17T07:16:12.278Z,56.70
2023-01-17T07:18:39.227Z,56.60
2023-01-17T07:21:11.687Z,56.50
2023-01-17T07:23:38.679Z,56.40
2023-01-17T07:26:05.597Z,56.40
2023-01-17T07:28:33.386Z,56.40
2023-01-17T07:31:04.542Z,56.30
2023-01-17T07:33:31.501Z,56.30
2023-01-17T07:35:58.339Z,56.30
2023-01-17T07:38:25.184Z,56.10
2023-01-17T07:40:52.067Z,56.10
2023-01-17T07:43:18.975Z,56.00
2023-01-17T07:45:49.356Z,55.90
2023-01-17T07:48:16.791Z,55.80
2023-01-17T07:50:44.016Z,55.90
2023-01-17T07:53:11.068Z,55.80
2023-01-17T07:55:37.930Z,55.80
2023-01-17T07:58:06.347Z,55.60
2023-01-17T08:00:33.167Z,55.60
2023-01-17T08:03:01.301Z,55.60
2023-01-17T08:05:28.507Z,55.50
2023-01-17T08:07:55.358Z,55.50
2023-01-17T08:10:22.767Z,55.60
2023-01-17T08:12:50.399Z,55.50
2023-01-17T08:15:18.100Z,55.40
2023-01-17T08:17:45.556Z,55.50
2023-01-17T08:20:13.019Z,55.70
2023-01-17T08:22:39.908Z,55.70
2023-01-17T08:25:06.947Z,55.80
2023-01-17T08:27:35.552Z,55.80
2023-01-17T08:30:03.222Z,55.80
2023-01-17T08:32:30.386Z,55.90
2023-01-17T08:34:57.621Z,56.00
2023-01-17T08:37:24.738Z,56.10
2023-01-17T08:39:51.715Z,56.30
2023-01-17T08:42:18.593Z,56.60
2023-01-17T08:44:45.448Z,57.10
2023-01-17T08:47:12.413Z,57.60
2023-01-17T08:49:39.316Z,58.50
2023-01-17T08:52:06.457Z,58.70
2023-01-17T08:54:33.477Z,59.60
2023-01-17T08:57:00.294Z,59.20
2023-01-17T08:59:27.150Z,56.90
2023-01-17T09:01:55.574Z,55.20
2023-01-17T09:04:22.651Z,54.70
2023-01-17T09:06:49.607Z,54.60
2023-01-17T09:09:16.976Z,54.60
2023-01-17T09:11:44.021Z,54.40
2023-01-17T09:14:13.152Z,56.30
2023-01-17T09:16:40.164Z,58.40
2023-01-17T09:19:07.066Z,57.90
2023-01-17T09:21:33.950Z,55.80
2023-01-17T09:24:00.803Z,53.30
2023-01-17T09:26:28.781Z,50.70
2023-01-17T09:28:55.836Z,48.30
2023-01-17T09:31:23.321Z,46.20
2023-01-17T09:33:50.717Z,44.20
2023-01-17T09:36:17.992Z,42.60
2023-01-17T09:38:44.939Z,41.40
2023-01-17T09:41:30.399Z,40.40
2023-01-17T09:44:03.147Z,39.20
2023-01-17T09:46:31.810Z,38.30
2023-01-17T09:49:18.859Z,37.70
2023-01-17T09:51:46.387Z,37.30
2023-01-17T09:54:23.035Z,37.10
2023-01-17T09:56:54.769Z,36.70
2023-01-17T09:59:45.792Z,36.50
2023-01-17T10:02:32.001Z,36.30
2023-01-17T10:04:59.172Z,36.20
2023-01-17T10:07:35.126Z,36.00
2023-01-17T10:10:11.350Z,35.90
2023-01-17T10:13:01.564Z,35.90
2023-01-17T10:15:51.095Z,36.20
2023-01-17T10:18:29.835Z,36.40
2023-01-17T10:21:03.698Z,36.30
2023-01-17T10:23:43.051Z,36.50
2023-01-17T10:26:16.398Z,36.50
2023-01-17T10:28:48.926Z,36.90
2023-01-17T10:31:20.875Z,37.30
2023-01-17T10:33:52.808Z,37.70
2023-01-17T10:36:39.971Z,38.20
2023-01-17T10:39:19.604Z,38.70
2023-01-17T10:41:51.054Z,38.90
2023-01-17T10:44:23.638Z,38.80
2023-01-17T10:46:53.374Z,39.30
2023-01-17T10:49:22.307Z,39.40
2023-01-17T10:52:06.066Z,39.40
2023-01-17T10:54:53.355Z,39.50
2023-01-17T10:57:21.726Z,39.90
2023-01-17T10:59:48.959Z,40.20
2023-01-17T11:02:21.927Z,40.70
2023-01-17T11:04:52.144Z,40.70
2023-01-17T11:07:28.839Z,40.60
2023-01-17T11:09:56.738Z,40.60
2023-01-17T11:12:26.762Z,40.70
2023-01-17T11:14:58.839Z,40.70
2023-01-17T11:17:27.817Z,40.70
2023-01-17T11:19:55.634Z,41.10
2023-01-17T11:22:22.793Z,41.10
2023-01-17T11:24:52.761Z,41.60
2023-01-17T11:27:25.633Z,41.60
2023-01-17T11:30:09.345Z,42.10
2023-01-17T11:32:36.339Z,42.60
2023-01-17T11:35:08.087Z,43.10
2023-01-17T11:37:35.557Z,43.50
2023-01-17T11:40:28.540Z,43.90
2023-01-17T11:43:03.099Z,44.00
2023-01-17T11:45:31.442Z,44.40
2023-01-17T11:48:04.369Z,44.70
2023-01-17T11:50:31.266Z,45.10
2023-01-17T11:53:16.940Z,45.50
2023-01-17T11:55:57.662Z,45.60
2023-01-17T11:58:25.514Z,46.10
2023-01-17T12:00:56.803Z,46.50
2023-01-17T12:03:42.330Z,46.90
2023-01-17T12:06:09.276Z,47.50
2023-01-17T12:08:39.061Z,47.50
2023-01-17T12:11:16.810Z,47.60
2023-01-17T12:14:02.667Z,48.00
2023-01-17T12:16:48.198Z,48.20
2023-01-17T12:19:21.722Z,48.70
2023-01-17T12:22:01.349Z,48.50
2023-01-17T12:24:46.921Z,48.70
2023-01-17T12:27:22.984Z,49.20
2023-01-17T12:29:52.717Z,49.40
2023-01-17T12:32:38.105Z,49.50
2023-01-17T12:35:11.197Z,49.90
2023-01-17T12:37:39.822Z,50.20
2023-01-17T12:40:25.296Z,50.30
2023-01-17T12:42:57.520Z,50.30
2023-01-17T12:45:28.482Z,50.40
2023-01-17T12:47:59.259Z,50.50
2023-01-17T12:50:28.945Z,50.60
2023-01-17T12:53:18.343Z,50.80
2023-01-17T12:55:54.105Z,50.90
2023-01-17T12:58:35.264Z,50.90
2023-01-17T13:01:07.557Z,51.00
2023-01-17T13:03:53.191Z,51.10
2023-01-17T13:06:25.067Z,51.20
2023-01-17T13:08:55.923Z,51.20
2023-01-17T13:11:46.900Z,51.30
2023-01-17T13:14:13.896Z,51.40
2023-01-17T13:16:50.345Z,51.40
2023-01-17T13:19:49.658Z,51.50
2023-01-17T13:22:21.850Z,51.60
2023-01-17T13:24:57.983Z,51.70
2023-01-17T13:27:24.820Z,51.70
2023-01-17T13:30:10.613Z,51.90
2023-01-17T13:32:52.762Z,52.10
2023-01-17T13:35:42.139Z,52.20
2023-01-17T13:38:27.806Z,52.20
2023-01-17T13:41:14.925Z,52.30
2023-01-17T13:44:03.413Z,52.40
2023-01-17T13:46:30.897Z,52.50
2023-01-17T13:49:17.771Z,52.70
2023-01-17T13:52:06.452Z,52.80
2023-01-17T13:54:34.280Z,52.90
2023-01-17T13:57:32.937Z,53.10
2023-01-17T14:00:18.749Z,53.20
2023-01-17T14:02:49.142Z,53.20
2023-01-17T14:05:16.636Z,53.50
2023-01-17T14:08:04.119Z,53.50
2023-01-17T14:10:37.318Z,53.50
2023-01-17T14:13:05.660Z,53.60
2023-01-17T14:15:33.807Z,53.70
2023-01-17T14:18:04.909Z,53.60
2023-01-17T14:20:44.295Z,53.50
2023-01-17T14:23:19.248Z,53.20
2023-01-17T14:25:46.186Z,53.40
2023-01-17T14:28:18.865Z,53.50
2023-01-17T14:30:46.020Z,53.30
2023-01-17T14:33:18.623Z,53.50
2023-01-17T14:35:52.885Z,53.50
2023-01-17T14:38:42.301Z,53.50
2023-01-17T14:41:12.003Z,53.50
2023-01-17T14:43:41.007Z,53.70
2023-01-17T14:46:14.513Z,53.70
2023-01-17T14:48:41.758Z,53.70
2023-01-17T14:51:18.304Z,53.80
2023-01-17T14:54:08.017Z,53.80
2023-01-17T14:56:34.896Z,53.80
2023-01-17T14:59:24.753Z,54.00
2023-01-17T15:02:07.190Z,54.20
2023-01-17T15:04:39.793Z,54.10
2023-01-17T15:07:09.528Z,54.10
2023-01-17T15:09:37.508Z,54.30
2023-01-17T15:12:05.249Z,54.40
2023-01-17T15:14:37.745Z,54.30
2023-01-17T15:17:10.997Z,54.30
2023-01-17T15:19:41.661Z,54.30
2023-01-17T15:22:08.686Z,54.30
2023-01-17T15:24:40.309Z,54.20
2023-01-17T15:27:07.156Z,54.30
2023-01-17T15:29:35.288Z,54.50
2023-01-17T15:32:05.943Z,54.40
2023-01-17T15:34:34.982Z,54.40
2023-01-17T15:37:03.426Z,54.30
2023-01-17T15:39:32.103Z,54.50
2023-01-17T15:42:00.431Z,54.70
2023-01-17T15:44:36.059Z,54.80
2023-01-17T15:47:28.155Z,55.00
2023-01-17T15:49:55.137Z,55.10
2023-01-17T15:52:22.031Z,55.00
2023-01-17T15:54:53.633Z,55.20
2023-01-17T15:57:23.682Z,55.40
2023-01-17T15:59:59.852Z,55.30
2023-01-17T16:02:30.841Z,55.20
2023-01-17T16:04:58.370Z,55.40
2023-01-17T16:07:32.500Z,55.50
2023-01-17T16:10:06.625Z,55.70
2023-01-17T16:12:33.568Z,55.70
2023-01-17T16:15:11.883Z,56.00
2023-01-17T16:17:41.613Z,56.00
2023-01-17T16:20:20.160Z,55.90
2023-01-17T16:22:47.906Z,56.10
2023-01-17T16:25:16.109Z,56.30
2023-01-17T16:27:45.508Z,56.50
2023-01-17T16:30:15.570Z,56.70
2023-01-17T16:32:43.035Z,57.00
2023-01-17T16:35:19.190Z,57.00
2023-01-17T16:37:51.667Z,57.70
2023-01-17T16:40:19.928Z,57.30
2023-01-17T16:42:48.141Z,57.50
2023-01-17T16:45:15.525Z,58.00
2023-01-17T16:47:43.465Z,57.80
2023-01-17T16:50:14.588Z,58.00
2023-01-17T16:52:41.772Z,58.20
2023-01-17T16:55:12.420Z,58.20
2023-01-17T16:57:39.323Z,58.40
2023-01-17T17:00:06.557Z,58.90
2023-01-17T17:02:33.542Z,58.90
2023-01-17T17:05:00.633Z,59.00
2023-01-17T17:07:27.566Z,59.40
2023-01-17T17:09:54.445Z,59.40
2023-01-17T17:12:21.307Z,59.70
2023-01-17T17:14:48.498Z,60.10
2023-01-17T17:17:15.434Z,60.20
2023-01-17T17:19:42.335Z,60.40
2023-01-17T17:22:09.253Z,60.20
2023-01-17T17:24:36.109Z,61.10
2023-01-17T17:27:02.958Z,60.70
2023-01-17T17:29:29.842Z,61.00
2023-01-17T17:31:56.821Z,61.10
2023-01-17T17:34:25.855Z,60.90
2023-01-17T17:36:53.006Z,61.40
2023-01-17T17:39:19.959Z,60.90
2023-01-17T17:41:47.361Z,61.20
2023-01-17T17:44:14.325Z,61.40
2023-01-17T17:46:42.290Z,61.30
2023-01-17T17:49:09.257Z,61.70
2023-01-17T17:51:37.777Z,61.80
2023-01-17T17:54:06.031Z,61.40
2023-01-17T17:56:33.505Z,61.80
2023-01-17T17:59:00.931Z,61.90
2023-01-17T18:01:28.156Z,62.50
2023-01-17T18:03:57.072Z,62.10
2023-01-17T18:06:24.250Z,62.40
2023-01-17T18:08:52.393Z,62.10
2023-01-17T18:11:22.734Z,62.50
2023-01-17T18:13:53.680Z,62.40
2023-01-17T18:16:28.516Z,62.40
2023-01-17T18:18:56.355Z,62.60
2023-01-17T18:21:25.357Z,62.50
2023-01-17T18:23:54.434Z,62.50
2023-01-17T18:26:22.919Z,62.40
2023-01-17T18:28:50.119Z,62.40
2023-01-17T18:31:17.131Z,62.70
2023-01-17T18:33:44.052Z,62.60
2023-01-17T18:36:11.671Z,62.90
2023-01-17T18:38:43.980Z,62.80
2023-01-17T18:41:15.190Z,62.60
2023-01-17T18:43:42.796Z,63.00
2023-01-17T18:46:10.368Z,62.80
2023-01-17T18:48:38.071Z,63.00
2023-01-17T18:51:06.337Z,63.30
2023-01-17T18:53:34.879Z,63.60
2023-01-17T18:56:03.186Z,63.50
2023-01-17T18:58:31.612Z,63.50
2023-01-17T19:01:09.306Z,63.40
2023-01-17T19:03:39.138Z,63.50
2023-01-17T19:06:06.714Z,63.40
2023-01-17T19:08:34.638Z,63.40
2023-01-17T19:11:01.759Z,63.50
2023-01-17T19:13:28.600Z,63.40
2023-01-17T19:15:58.941Z,63.20
2023-01-17T19:18:25.817Z,63.20
2023-01-17T19:20:52.698Z,63.00
2023-01-17T19:23:19.653Z,63.10
2023-01-17T19:25:46.700Z,63.30
2023-01-17T19:28:13.611Z,63.10
2023-01-17T19:30:40.860Z,63.10
2023-01-17T19:33:07.790Z,63.10
2023-01-17T19:35:37.537Z,63.20
2023-01-17T19:38:04.486Z,63.10
2023-01-17T19:40:31.619Z,63.20
2023-01-17T19:42:59.275Z,63.00
2023-01-17T19:45:26.411Z,63.40
2023-01-17T19:47:53.469Z,63.10
2023-01-17T19:50:20.625Z,63.40
2023-01-17T19:52:47.697Z,63.50
2023-01-17T19:55:14.699Z,63.60
2023-01-17T19:57:41.717Z,63.60
2023-01-17T20:00:09.485Z,63.70
2023-01-17T20:02:37.609Z,63.80
2023-01-17T20:05:04.800Z,63.60
2023-01-17T20:07:33.743Z,63.50
2023-01-17T20:10:00.807Z,63.40
2023-01-17T20:12:27.694Z,63.50
2023-01-17T20:14:54.576Z,63.70
2023-01-17T20:17:21.451Z,63.70
2023-01-17T20:19:48.398Z,63.90
2023-01-17T20:22:15.338Z,64.10
2023-01-17T20:24:42.333Z,64.20
2023-01-17T20:27:09.191Z,64.10
2023-01-17T20:29:36.243Z,64.20
2023-01-17T20:32:03.299Z,64.20
2023-01-17T20:34:31.597Z,64.50
2023-01-17T20:36:59.555Z,64.70
2023-01-17T20:39:26.664Z,65.20
2023-01-17T20:41:53.533Z,65.10
2023-01-17T20:44:20.548Z,65.20
2023-01-17T20:46:48.314Z,65.50
2023-01-17T20:49:17.282Z,65.60
2023-01-17T20:51:44.778Z,66.00
2023-01-17T20:54:15.868Z,66.30
2023-01-17T20:56:43.075Z,66.20
2023-01-17T20:59:14.607Z,66.60
2023-01-17T21:01:42.147Z,66.50
2023-01-17T21:04:13.110Z,66.80
2023-01-17T21:06:40.855Z,66.90
2023-01-17T21:09:08.947Z,66.90
2023-01-17T21:11:37.140Z,67.10
2023-01-17T21:14:05.829Z,67.00
2023-01-17T21:16:33.706Z,67.10
2023-01-17T21:19:00.801Z,67.10
2023-01-17T21:21:29.065Z,67.30
2023-01-17T21:24:01.184Z,67.20
2023-01-17T21:26:28.437Z,67.30
2023-01-17T21:28:55.658Z,67.60
2023-01-17T21:31:24.681Z,67.90
2023-01-17T21:33:59.047Z,67.70
2023-01-17T21:36:27.876Z,67.70
2023-01-17T21:38:57.130Z,67.70
2023-01-17T21:41:25.805Z,68.30
2023-01-17T21:44:00.032Z,68.20
2023-01-17T21:46:27.673Z,68.20
2023-01-17T21:48:56.890Z,68.60
2023-01-17T21:51:24.455Z,68.30
2023-01-17T21:53:51.471Z,68.40
2023-01-17T21:56:37.080Z,68.50
2023-01-17T21:59:04.126Z,68.70
2023-01-17T22:01:33.252Z,68.90
2023-01-17T22:04:01.306Z,68.70
2023-01-17T22:06:29.922Z,68.80
2023-01-17T22:08:56.858Z,68.80
2023-01-17T22:11:24.786Z,68.80
2023-01-17T22:13:52.201Z,68.70
2023-01-17T22:16:20.608Z,68.90
2023-01-17T22:18:47.468Z,69.00
2023-01-17T22:21:19.342Z,68.90
2023-01-17T22:23:47.692Z,68.90
2023-01-17T22:26:15.479Z,69.00
2023-01-17T22:28:42.844Z,69.30
2023-01-17T22:31:23.698Z,69.40
2023-01-17T22:33:58.209Z,69.30
2023-01-17T22:36:25.167Z,69.30
2023-01-17T22:38:52.200Z,69.40
2023-01-17T22:41:20.900Z,69.50
2023-01-17T22:43:52.209Z,69.50
2023-01-17T22:46:20.593Z,69.40
2023-01-17T22:48:47.567Z,69.10
2023-01-17T22:51:15.887Z,69.20
2023-01-17T22:53:47.376Z,69.30
2023-01-17T22:56:15.552Z,69.40
2023-01-17T22:58:44.924Z,69.40
2023-01-17T23:01:13.590Z,69.40
2023-01-17T23:03:41.378Z,69.40
2023-01-17T23:06:15.695Z,69.40
2023-01-17T23:08:43.548Z,69.30
2023-01-17T23:11:39.141Z,69.20
2023-01-17T23:14:06.159Z,69.30
2023-01-17T23:16:51.528Z,69.50
2023-01-17T23:19:24.294Z,69.50
2023-01-17T23:22:11.084Z,68.70
2023-01-17T23:24:43.422Z,68.60
2023-01-17T23:27:30.075Z,68.80
2023-01-17T23:29:57.000Z,69.00
2023-01-17T23:32:23.988Z,69.10
2023-01-17T23:34:51.165Z,69.00
2023-01-17T23:37:18.310Z,69.00
2023-01-17T23:39:45.289Z,68.90
2023-01-17T23:42:30.754Z,68.90
2023-01-17T23:44:57.738Z,68.90
2023-01-17T23:47:24.938Z,68.70
2023-01-17T23:49:51.955Z,68.60
2023-01-17T23:52:18.852Z,68.70
2023-01-17T23:54:45.794Z,68.60
2023-01-17T23:57:12.674Z,68.50
2023-01-17T23:59:39.633Z,68.50
